Latest Weather Observations for Goulburn Airport

IDN60801

Issued at 4:12 pm EDT Saturday 31 October 2020 (issued every 10 minutes, with the page automatically refreshed every 10 minutes)

About weather observations | Map of weather stations | Latest weather observations for NSW | Other Formats
Station Details ID: 070330 Name: GOULBURN AIRPORT AWS Lat: -34.81 Lon: 149.73 Height: 640.0 m
Data from the previous 72 hours. | See also: Recent months at Goulburn Airport
Date/Time
EDT
Temp
°C
App
Temp
°C
Dew
Point
°C
Rel
Hum
%
Delta-T
°C
Wind Press
QNH
hPa
Press
MSL
hPa
Rain since
9am
mm
Dir  Spd
km/h
Gust
km/h
Spd
kts
Gust
kts
31/04:00pm 15.9 11.7 8.2 60 4.0 SSW 20 30 11 16 1010.3 1009.4 3.6
31/03:30pm 15.1 9.8 8.6 65 3.4 SSW 26 35 14 19 1010.3 1009.4 3.6
31/03:00pm 14.6 10.0 9.8 73 2.6 SSW 24 32 13 17 1010.6 1009.7 3.6
31/02:30pm 14.2 10.0 9.8 75 2.3 S 22 28 12 15 1010.8 1009.9 3.6
31/02:00pm 13.1 9.0 11.5 90 0.9 SSW 24 33 13 18 1010.9 1010.0 3.6
31/01:30pm 11.1 5.5 10.3 95 0.4 SW 30 37 16 20 1011.4 1010.6 3.4
31/01:19pm 11.6 7.2 10.5 93 0.6 SW 24 35 13 19 1011.7 1010.8 3.0
31/01:07pm 11.3 8.6 10.4 94 0.5 SW 15 20 8 11 1011.7 1010.8 2.4
31/01:00pm 11.0 8.1 9.8 92 0.6 SSW 15 17 8 9 1011.8 1010.9 1.8
31/12:40pm 11.3 7.6 7.8 79 1.8 WNW 17 28 9 15 1011.8 1010.9 0.6
31/12:30pm 12.4 9.6 8.5 77 2.0 NNE 13 26 7 14 1011.4 1010.6 0.2
31/12:20pm 13.4 11.1 10.4 82 1.6 ESE 13 20 7 11 1011.2 1010.4 0.2
31/12:00pm 14.5 10.0 12.5 88 1.1 SSE 28 39 15 21 1010.1 1009.2 0.2
31/11:30am 12.9 8.6 12.0 94 0.5 SE 26 37 14 20 1009.6 1008.7 0.2
31/11:00am 12.4 8.4 11.9 97 0.3 SE 24 35 13 19 1010.0 1009.1 0.2
31/10:30am 12.4 9.2 11.9 97 0.3 SSE 20 28 11 15 1010.3 1009.4 0.2
31/10:00am 12.5 10.4 12.3 99 0.1 SE 15 20 8 11 1010.7 1009.8 0.2
31/09:30am 12.1 8.8 11.6 97 0.3 SSE 20 30 11 16 1009.9 1009.0 0.2
31/09:00am 11.9 7.1 11.6 98 0.2 SSE 28 37 15 20 1009.7 1008.8 20.2
31/08:44am 12.1 8.5 11.9 99 0.1 SSE 22 33 12 18 1009.5 1008.6 20.0
31/08:30am 12.0 7.2 11.8 99 0.1 SSE 28 37 15 20 1009.6 1008.7 19.8
31/08:25am 12.1 8.9 11.9 99 0.1 ESE 20 35 11 19 1009.9 1009.0 19.2
31/08:12am 12.2 10.7 12.0 99 0.1 S 11 17 6 9 1010.0 1009.1 5.6
31/08:00am 12.2 10.7 12.0 99 0.1 S 11 17 6 9 1009.7 1008.8 2.8
31/07:30am 12.2 10.4 12.0 99 0.1 SSE 13 20 7 11 1009.5 1008.6 1.2
31/07:00am 12.4 10.2 12.1 98 0.2 SSE 15 20 8 11 1009.4 1008.5 0.8
31/06:51am 12.4 10.1 11.9 97 0.3 SSE 15 20 8 11 1009.6 1008.7 0.8
31/06:34am 12.3 9.6 11.8 97 0.3 SSE 17 22 9 12 1009.6 1008.7 0.8
31/06:30am 12.3 9.6 11.8 97 0.3 SE 17 22 9 12 1009.5 1008.6 0.8
31/06:00am 12.3 9.0 11.7 96 0.3 ESE 20 28 11 15 1009.2 1008.3 0.8
31/05:44am 12.3 9.0 11.7 96 0.3 ESE 20 30 11 16 1009.3 1008.4 0.8
31/05:30am 12.1 9.7 11.3 95 0.4 ESE 15 20 8 11 1009.3 1008.4 0.6
31/05:00am 12.4 9.2 11.3 93 0.6 ESE 19 33 10 18 1009.4 1008.5 0.4
31/04:30am 12.2 9.8 11.3 94 0.5 ESE 15 24 8 13 1009.3 1008.4 0.4
31/04:00am 12.2 8.8 11.1 93 0.6 ESE 20 28 11 15 1009.6 1008.7 0.4
31/03:35am 11.9 8.6 10.8 93 0.6 SE 19 28 10 15 1009.7 1008.8 0.4
31/03:30am 11.8 8.4 10.7 93 0.6 SE 19 28 10 15 1009.9 1009.0 0.4
31/03:21am 11.8 8.8 10.7 93 0.6 ESE 17 26 9 14 1010.0 1009.1 0.4
31/03:00am 12.1 9.6 11.0 93 0.6 ESE 15 20 8 11 1010.3 1009.4 0.4
31/02:37am 12.0 8.5 10.9 93 0.6 ESE 20 28 11 15 1010.4 1009.5 0.4
31/02:30am 12.0 8.8 11.1 94 0.5 ESE 19 28 10 15 1010.3 1009.4 0.4
31/02:00am 12.2 8.7 10.9 92 0.7 ESE 20 30 11 16 1010.9 1010.0 0.4
31/01:55am 12.2 8.3 10.8 91 0.8 ESE 22 30 12 16 1010.8 1009.9 0.4
31/01:30am 12.4 8.9 10.8 90 0.9 E 20 33 11 18 1011.2 1010.4 0.4
31/01:00am 12.4 8.6 11.0 91 0.8 E 22 33 12 18 1011.2 1010.4 0.4
31/12:30am 12.3 9.2 11.5 95 0.4 E 19 26 10 14 1011.7 1010.8 0.4
31/12:15am 12.3 9.0 11.5 95 0.4 E 20 28 11 15 1012.2 1011.3 0.4
31/12:06am 12.3 9.2 11.5 95 0.4 E 19 24 10 13 1012.1 1011.2 0.4
31/12:00am 12.3 9.2 11.5 95 0.4 E 19 26 10 14 1012.3 1011.4 0.4
 
Date/Time
EDT
Temp
°C
App
Temp
°C
Dew
Point
°C
Rel
Hum
%
Delta-T
°C
Wind Press
QNH
hPa
Press
MSL
hPa
Rain since
9am
mm
Dir  Spd
km/h
Gust
km/h
Spd
kts
Gust
kts
30/11:30pm 12.3 9.6 11.8 97 0.3 ESE 17 20 9 11 1012.4 1011.5 0.2
30/11:22pm 12.3 9.6 11.7 96 0.3 E 17 24 9 13 1012.3 1011.4 0.2
30/11:20pm 12.3 9.6 11.8 97 0.3 E 17 24 9 13 1012.3 1011.4 0.2
30/11:00pm 12.0 8.4 11.7 98 0.2 SE 22 30 12 16 1011.6 1010.7 0.2
30/10:30pm 12.5 9.7 11.4 93 0.6 ESE 17 26 9 14 1013.0 1012.2 0.0
30/10:14pm 12.5 9.3 11.4 93 0.6 SE 19 24 10 13 1012.3 1011.4 0.0
30/10:00pm 12.5 9.1 11.1 91 0.8 SE 20 28 11 15 1012.2 1011.3 0.0
30/09:38pm 12.7 9.3 11.1 90 0.9 SE 20 26 11 14 1012.5 1011.7 0.0
30/09:30pm 12.8 9.4 11.2 90 0.9 SE 20 32 11 17 1012.5 1011.7 0.0
30/09:00pm 12.8 8.5 10.9 88 1.0 ESE 24 37 13 20 1012.2 1011.3 0.0
30/08:30pm 13.3 9.1 11.0 86 1.3 ESE 24 33 13 18 1011.8 1010.9 0.0
30/08:00pm 13.5 9.6 10.9 84 1.4 ESE 22 30 12 16 1011.3 1010.5 0.0
30/07:30pm 13.9 10.5 11.4 85 1.4 ESE 20 30 11 16 1010.6 1009.7 0.0
30/07:00pm 14.1 10.4 11.6 85 1.4 ESE 22 32 12 17 1009.7 1008.8 0.0
30/06:43pm 14.3 10.6 11.6 84 1.5 ESE 22 30 12 16 1009.3 1008.4 0.0
30/06:30pm 14.6 10.1 11.4 81 1.8 E 26 35 14 19 1009.1 1008.2 0.0
30/06:00pm 15.4 9.9 12.0 80 1.9 E 32 39 17 21 1009.2 1008.3 0.0
30/05:30pm 15.2 9.7 11.8 80 1.9 E 32 43 17 23 1009.1 1008.2 0.0
30/05:00pm 15.4 11.3 11.6 78 2.1 ESE 24 35 13 19 1009.6 1008.7 0.0
30/04:30pm 15.8 12.5 11.0 73 2.6 ENE 19 24 10 13 1010.3 1009.4 0.0
30/04:00pm 16.4 12.1 10.7 69 3.1 E 24 33 13 18 1010.0 1009.1 0.0
30/03:30pm 17.3 13.7 10.4 64 3.8 E 20 28 11 15 1009.2 1008.3 0.0
30/03:00pm 18.3 14.9 10.4 60 4.4 ENE 19 26 10 14 1009.6 1008.7 0.0
30/02:30pm 19.3 15.6 10.0 55 5.1 E 20 28 11 15 1009.9 1009.0 0.0
30/02:00pm 19.8 17.3 12.3 62 4.3 ENE 17 28 9 15 1009.9 1009.0 0.0
30/01:30pm 19.0 15.7 11.6 62 4.2 E 20 28 11 15 1010.3 1009.4 0.0
30/01:00pm 18.0 14.8 11.1 64 3.9 ENE 19 26 10 14 1010.4 1009.5 0.0
30/12:30pm 18.2 16.3 11.7 66 3.7 E 13 20 7 11 1010.5 1009.6 0.0
30/12:00pm 17.2 14.0 9.9 62 4.0 ESE 17 24 9 13 1010.9 1010.0 0.0
30/11:30am 16.9 14.6 10.3 65 3.6 E 13 22 7 12 1011.0 1010.1 0.0
30/11:00am 16.4 14.3 11.1 71 2.9 ESE 13 17 7 9 1011.3 1010.5 0.0
30/10:35am 15.1 13.4 11.1 77 2.2 ESE 11 17 6 9 1011.7 1010.8 0.0
30/10:30am 14.7 12.2 10.9 78 2.1 SE 15 20 8 11 1011.7 1010.8 0.0
30/10:00am 14.4 14.4 11.0 80 1.9 NE 2 9 1 5 1012.0 1011.1 0.0
30/09:30am 13.0 12.3 10.2 83 1.5 SE 4 9 2 5 1012.1 1011.2 0.0
30/09:00am 11.7 10.6 10.8 94 0.5 E 7 11 4 6 1012.2 1011.3 13.0
30/08:30am 11.3 9.6 11.1 99 0.1 ESE 11 13 6 7 1012.0 1011.1 13.0
30/08:00am 10.7 8.8 10.5 99 0.1 E 11 17 6 9 1011.9 1011.0 13.0
30/07:30am 10.2 8.2 10.1 99 0.1 E 11 17 6 9 1011.8 1010.9 13.0
30/07:00am 9.7 9.6 9.6 99 0.1 CALM 0 6 0 3 1011.6 1010.7 13.0
30/06:30am 8.5 8.1 8.4 99 0.0 CALM 0 0 0 0 1011.0 1010.1 13.0
30/06:00am 7.8 7.3 7.7 99 0.0 CALM 0 0 0 0 1011.1 1010.3 13.0
30/05:30am 7.2 5.4 7.1 99 0.0 N 6 7 3 4 1010.7 1009.8 13.0
30/05:00am 6.7 5.9 6.6 99 0.0 CALM 0 0 0 0 1010.6 1009.7 13.0
30/04:47am 6.4 5.6 6.3 99 0.0 CALM 0 0 0 0 1010.5 1009.6 13.0
30/04:30am 6.1 4.8 6.0 99 0.0 SSW 2 6 1 3 1010.6 1009.7 13.0
30/04:00am 5.4 4.3 5.3 99 0.0 CALM 0 0 0 0 1010.4 1009.5 13.0
30/03:30am 4.7 3.5 4.6 99 0.0 CALM 0 0 0 0 1010.1 1009.2 13.0
30/03:00am 5.1 4.0 5.0 99 0.0 CALM 0 0 0 0 1010.4 1009.5 13.0
30/02:30am 5.4 4.3 5.3 99 0.0 CALM 0 0 0 0 1010.6 1009.7 13.0
30/02:10am 5.4 4.3 5.3 99 0.0 CALM 0 0 0 0 1010.5 1009.6 13.0
30/02:00am 5.9 4.9 5.8 99 0.0 CALM 0 0 0 0 1010.6 1009.7 13.0
30/01:30am 6.2 5.3 6.1 99 0.0 CALM 0 0 0 0 1010.7 1009.8 13.0
30/01:00am 6.7 5.9 6.6 99 0.0 CALM 0 0 0 0 1011.0 1010.1 13.0
30/12:30am 6.9 6.2 6.8 99 0.0 CALM 0 0 0 0 1011.6 1010.7 13.0
30/12:28am 7.0 6.3 6.9 99 0.0 CALM 0 0 0 0 1011.6 1010.7 13.0
30/12:00am 7.1 6.4 7.0 99 0.0 CALM 0 0 0 0 1011.7 1010.8 13.0
 
Date/Time
EDT
Temp
°C
App
Temp
°C
Dew
Point
°C
Rel
Hum
%
Delta-T
°C
Wind Press
QNH
hPa
Press
MSL
hPa
Rain since
9am
mm
Dir  Spd
km/h
Gust
km/h
Spd
kts
Gust
kts
29/11:47pm 8.2 7.8 8.1 99 0.0 CALM 0 0 0 0 1011.6 1010.7 13.0
29/11:30pm 9.1 8.9 9.0 99 0.1 CALM 0 0 0 0 1011.9 1011.0 13.0
29/11:00pm 9.9 9.9 9.8 99 0.1 CALM 0 0 0 0 1012.2 1011.3 13.0
29/10:30pm 10.6 10.8 10.4 99 0.1 CALM 0 0 0 0 1012.6 1011.8 13.0
29/10:00pm 10.7 10.9 10.5 99 0.1 CALM 0 0 0 0 1012.6 1011.8 13.0
29/09:30pm 10.7 10.9 10.5 99 0.1 CALM 0 0 0 0 1012.6 1011.8 13.0
29/09:00pm 10.6 10.7 10.3 98 0.2 CALM 0 0 0 0 1012.3 1011.4 13.0
29/08:30pm 10.5 9.8 10.0 97 0.3 SSW 4 7 2 4 1012.0 1011.1 13.0
29/08:00pm 10.9 9.6 10.1 95 0.4 SW 7 9 4 5 1011.6 1010.7 13.0
29/07:30pm 11.4 9.7 9.7 89 0.9 SW 9 15 5 8 1011.4 1010.6 13.0
29/07:00pm 12.2 10.9 10.1 87 1.1 SE 7 11 4 6 1011.1 1010.3 13.0
29/06:30pm 12.0 9.7 10.6 91 0.7 ESE 13 22 7 12 1011.0 1010.1 13.0
29/06:00pm 11.8 7.9 10.9 94 0.5 SSE 22 30 12 16 1011.0 1010.1 12.6
29/05:30pm 12.2 8.1 11.6 96 0.3 S 24 33 13 18 1011.3 1010.5 11.6
29/05:29pm 12.2 8.5 11.6 96 0.3 S 22 33 12 18 1011.3 1010.5 11.4
29/05:27pm 12.0 8.7 11.5 97 0.3 S 20 33 11 18 1011.2 1010.4 11.0
29/05:00pm 12.1 9.8 10.5 90 0.9 SSE 13 20 7 11 1010.8 1009.9 7.0
29/04:47pm 12.1 6.8 9.7 85 1.3 S 28 32 15 17 1010.3 1009.4 2.6
29/04:30pm 15.3 10.9 9.0 66 3.3 ESE 22 30 12 16 1010.0 1009.1 0.0
29/04:00pm 18.7 16.3 11.3 62 4.2 ENE 15 20 8 11 1009.9 1009.0 0.0
29/03:30pm 17.1 14.2 10.9 67 3.4 NE 17 20 9 11 1010.2 1009.3 0.0
29/03:00pm 18.4 16.5 7.5 49 5.7 E 7 15 4 8 1010.6 1009.7 0.0
29/02:30pm 19.0 16.3 8.9 52 5.5 ESE 13 19 7 10 1010.9 1010.0 0.0
29/02:00pm 17.9 15.2 7.3 50 5.5 SSE 11 17 6 9 1011.3 1010.5 0.0
29/01:30pm 18.8 17.5 9.8 56 4.9 SW 7 11 4 6 1011.7 1010.8 0.0
29/01:00pm 17.8 16.0 8.1 53 5.1 ESE 7 13 4 7 1012.2 1011.3 0.0
29/12:30pm 17.9 15.9 8.5 54 5.0 ESE 9 17 5 9 1012.6 1011.8 0.0
29/12:00pm 17.0 15.6 9.4 61 4.1 SE 7 13 4 7 1013.1 1012.3 0.0
29/11:30am 17.3 16.9 11.1 67 3.5 SSE 4 9 2 5 1013.5 1012.6 0.0
29/11:00am 16.2 15.5 10.1 67 3.3 SSW 4 13 2 7 1013.7 1012.8 0.0
29/10:30am 15.8 15.3 9.5 66 3.4 E 2 7 1 4 1014.0 1013.2 0.0
29/10:00am 14.7 13.5 9.5 71 2.8 SSE 6 9 3 5 1014.3 1013.5 0.0
29/09:37am 14.4 12.9 9.2 71 2.7 SE 7 13 4 7 1014.4 1013.6 0.0
29/09:30am 14.6 13.1 10.4 76 2.3 SE 9 17 5 9 1014.4 1013.6 0.0
29/09:00am 13.3 12.2 10.5 83 1.5 S 7 11 4 6 1014.7 1013.9 0.2
29/08:30am 12.1 10.1 10.2 88 1.0 SSE 11 15 6 8 1015.0 1014.1 0.2
29/08:00am 11.8 10.7 9.9 88 1.0 S 6 11 3 6 1015.1 1014.2 0.2
29/07:33am 11.1 10.6 10.6 97 0.3 SSW 4 9 2 5 1014.9 1014.0 0.2
29/07:30am 11.0 10.9 10.8 99 0.1 SSW 2 7 1 4 1015.0 1014.1 0.2
29/07:00am 10.3 10.4 10.1 99 0.1 CALM 0 0 0 0 1014.7 1013.9 0.2
29/06:30am 10.0 10.0 9.9 99 0.1 CALM 0 0 0 0 1014.5 1013.7 0.2
29/06:00am 9.8 9.8 9.7 99 0.1 CALM 0 0 0 0 1014.3 1013.5 0.2
29/05:30am 9.8 9.4 9.7 99 0.1 SSW 2 9 1 5 1013.9 1013.1 0.2
29/05:00am 9.8 8.4 9.7 99 0.1 SSW 7 9 4 5 1014.0 1013.2 0.2
29/04:30am 9.9 8.2 9.8 99 0.1 SSW 9 13 5 7 1014.4 1013.6 0.2
29/04:19am 9.9 8.2 9.8 99 0.1 SSW 9 11 5 6 1014.5 1013.7 0.2
29/04:00am 10.1 8.4 10.0 99 0.1 SW 9 13 5 7 1014.7 1013.9 0.2
29/03:30am 10.3 8.6 10.0 98 0.2 SW 9 13 5 7 1015.0 1014.1 0.2
29/03:00am 10.6 8.6 10.3 98 0.2 SSE 11 13 6 7 1015.3 1014.5 0.2
29/02:30am 10.4 8.8 10.1 98 0.2 S 9 11 5 6 1015.5 1014.7 0.2
29/02:00am 10.2 10.2 9.9 98 0.2 CALM 0 2 0 1 1015.9 1015.1 0.2
29/01:30am 10.6 8.5 9.7 94 0.5 ESE 11 15 6 8 1015.7 1014.9 0.2
29/01:00am 11.1 8.8 10.3 95 0.4 SE 13 17 7 9 1016.2 1015.4 0.2
29/12:30am 11.2 9.3 10.4 95 0.4 SE 11 15 6 8 1016.4 1015.6 0.2
29/12:00am 11.4 9.1 10.5 94 0.5 ESE 13 19 7 10 1016.9 1016.1 0.2
 
Date/Time
EDT
Temp
°C
App
Temp
°C
Dew
Point
°C
Rel
Hum
%
Delta-T
°C
Wind Press
QNH
hPa
Press
MSL
hPa
Rain since
9am
mm
Dir  Spd
km/h
Gust
km/h
Spd
kts
Gust
kts
28/11:30pm 11.5 8.8 10.2 92 0.7 ESE 15 19 8 10 1017.3 1016.5 0.2
28/11:13pm 11.7 9.0 10.3 91 0.7 SE 15 24 8 13 1017.4 1016.6 0.2
28/11:00pm 11.8 9.1 10.4 91 0.7 ESE 15 20 8 11 1017.5 1016.7 0.2
28/10:30pm 11.9 8.3 10.6 92 0.7 ESE 20 26 11 14 1017.5 1016.7 0.2
28/10:00pm 12.0 9.0 10.7 92 0.7 ESE 17 20 9 11 1017.8 1017.0 0.2
28/09:43pm 12.2 9.7 10.9 92 0.7 ESE 15 22 8 12 1017.7 1016.9 0.2
28/09:30pm 12.3 10.2 11.2 93 0.6 ESE 13 17 7 9 1017.7 1016.9 0.2
28/09:11pm 12.1 10.3 11.0 93 0.6 E 11 17 6 9 1017.4 1016.6 0.2
28/09:00pm 12.0 9.4 10.7 92 0.7 ESE 15 22 8 12 1017.3 1016.5 0.2
28/08:49pm 12.1 10.0 11.0 93 0.6 ESE 13 17 7 9 1017.2 1016.4 0.2
28/08:30pm 12.0 10.5 10.6 91 0.7 SE 9 13 5 7 1017.1 1016.3 0.2
28/08:25pm 12.1 11.0 10.7 91 0.8 ESE 7 13 4 7 1017.0 1016.2 0.2
28/08:00pm 12.8 9.8 10.7 87 1.1 E 17 24 9 13 1016.8 1016.0 0.2
28/07:30pm 13.4 10.4 10.6 83 1.5 ENE 17 26 9 14 1016.4 1015.6 0.2
28/07:00pm 14.3 11.5 10.1 76 2.3 ENE 15 20 8 11 1015.8 1015.0 0.2
28/06:30pm 15.1 11.5 9.9 71 2.8 ENE 19 26 10 14 1015.4 1014.6 0.2
28/06:00pm 16.1 12.0 10.2 68 3.2 ENE 22 28 12 15 1015.3 1014.5 0.2
28/05:30pm 16.4 15.6 11.1 71 2.9 NNE 6 9 3 5 1015.7 1014.9 0.2
28/05:00pm 16.2 14.0 10.9 71 2.9 NE 13 22 7 12 1015.4 1014.6 0.2
28/04:30pm 16.6 13.2 10.7 68 3.3 NE 19 24 10 13 1015.6 1014.8 0.2

Other formats

Comma delimited format used in spreadsheet applications
http://www.bom.gov.au/fwo/IDN60801/IDN60801.95716.axf

JavaScript Object Notation format (JSON) in row-major order
http://www.bom.gov.au/fwo/IDN60801/IDN60801.95716.json

Data quality

Most of these data are generated automatically and are frequently updated. Quality checks on data are not normally performed. It is possible for incorrect values to appear. Refer to information at About Latest Weather Observations and please check the disclaimer before using these data.